createdAt,value
2017-09-22T00:01:14.883Z,14.07
2017-09-22T00:03:43.124Z,12.73
2017-09-22T00:06:10.614Z,14.47
2017-09-22T00:08:38.076Z,14.07
2017-09-22T00:11:06.306Z,14.67
2017-09-22T00:13:33.782Z,14.70
2017-09-22T00:16:01.259Z,15.47
2017-09-22T00:18:28.742Z,14.37
2017-09-22T00:20:56.975Z,13.80
2017-09-22T00:23:24.467Z,15.10
2017-09-22T00:25:52.704Z,14.60
2017-09-22T00:28:20.189Z,14.60
2017-09-22T00:30:47.667Z,16.67
2017-09-22T00:33:15.138Z,15.33
2017-09-22T00:35:42.611Z,15.17
2017-09-22T00:38:10.079Z,15.23
2017-09-22T00:40:37.551Z,13.87
2017-09-22T00:43:05.040Z,16.77
2017-09-22T00:45:33.276Z,15.77
2017-09-22T00:48:00.755Z,15.50
2017-09-22T00:50:28.224Z,16.13
2017-09-22T00:52:56.471Z,15.83
2017-09-22T00:55:23.955Z,15.40
2017-09-22T00:57:52.182Z,15.37
2017-09-22T01:00:19.667Z,15.10
2017-09-22T01:02:47.919Z,14.90
2017-09-22T01:05:15.385Z,15.27
2017-09-22T01:07:42.859Z,14.80
2017-09-22T01:10:10.328Z,15.17
2017-09-22T01:12:38.572Z,15.10
2017-09-22T01:15:06.043Z,15.80
2017-09-22T01:17:34.292Z,15.30
2017-09-22T01:20:01.765Z,15.07
2017-09-22T01:22:29.252Z,15.33
2017-09-22T01:24:57.486Z,15.17
2017-09-22T01:27:24.950Z,16.47
2017-09-22T01:29:52.444Z,16.93
2017-09-22T01:32:20.687Z,16.30
2017-09-22T01:34:48.183Z,17.53
2017-09-22T01:37:15.650Z,16.13
2017-09-22T01:39:43.143Z,14.03
2017-09-22T01:42:10.619Z,16.80
2017-09-22T01:44:38.104Z,17.53
2017-09-22T01:47:06.335Z,17.00
2017-09-22T01:49:33.808Z,16.73
2017-09-22T01:52:01.279Z,16.70
2017-09-22T01:54:29.508Z,15.70
2017-09-22T01:56:56.983Z,17.63
2017-09-22T01:59:24.472Z,16.67
2017-09-22T02:01:51.942Z,18.57
2017-09-22T02:04:19.430Z,18.17
2017-09-22T02:06:46.897Z,16.20
2017-09-22T02:09:14.388Z,17.60
2017-09-22T02:11:41.851Z,17.40
2017-09-22T02:14:10.104Z,19.17
2017-09-22T02:16:37.574Z,17.83
2017-09-22T02:19:05.058Z,17.70
2017-09-22T02:21:32.527Z,17.77
2017-09-22T02:24:00.006Z,18.90
2017-09-22T02:26:27.476Z,18.60
2017-09-22T02:28:54.967Z,17.00
2017-09-22T02:31:22.428Z,18.13
2017-09-22T02:33:50.677Z,17.87
2017-09-22T02:36:18.163Z,19.37
2017-09-22T02:38:46.388Z,18.50
2017-09-22T02:41:13.868Z,19.03
2017-09-22T02:43:41.342Z,17.90
2017-09-22T02:46:08.821Z,18.00
2017-09-22T02:48:36.429Z,17.47
2017-09-22T02:51:03.883Z,17.60
2017-09-22T02:53:31.346Z,18.37
2017-09-22T02:55:58.832Z,17.93
2017-09-22T02:58:27.065Z,19.40
2017-09-22T03:00:54.548Z,19.33
2017-09-22T03:03:22.011Z,18.80
2017-09-22T03:05:49.479Z,19.07
2017-09-22T03:08:16.960Z,18.20
2017-09-22T03:10:44.419Z,19.17
2017-09-22T03:13:11.898Z,21.53
2017-09-22T03:15:39.366Z,19.77
2017-09-22T03:18:06.843Z,19.30
2017-09-22T03:20:34.308Z,21.37
2017-09-22T03:23:01.790Z,20.13
2017-09-22T03:25:30.015Z,21.40
2017-09-22T03:27:57.499Z,23.37
2017-09-22T03:30:25.738Z,19.10
2017-09-22T03:32:53.199Z,19.47
2017-09-22T03:35:20.678Z,21.50
2017-09-22T03:37:48.917Z,20.20
2017-09-22T03:40:16.394Z,20.67
2017-09-22T03:42:43.884Z,21.77
2017-09-22T03:45:12.116Z,23.47
2017-09-22T03:47:39.592Z,23.40
2017-09-22T03:50:07.068Z,23.50
2017-09-22T03:52:35.311Z,23.43
2017-09-22T03:55:02.781Z,23.70
2017-09-22T03:57:30.244Z,21.53
2017-09-22T03:59:57.714Z,22.60
2017-09-22T04:02:25.947Z,25.00
2017-09-22T04:04:53.428Z,23.03
2017-09-22T04:07:22.419Z,22.87
2017-09-22T04:09:49.874Z,24.30
2017-09-22T04:12:17.390Z,24.10
2017-09-22T04:14:44.866Z,21.43
2017-09-22T04:17:12.351Z,23.37
2017-09-22T04:19:39.820Z,24.97
2017-09-22T04:22:08.050Z,24.07
2017-09-22T04:24:35.528Z,23.50
2017-09-22T04:27:02.995Z,23.77
2017-09-22T04:29:30.471Z,25.07
2017-09-22T04:31:58.719Z,24.33
2017-09-22T04:34:26.191Z,24.50
2017-09-22T04:36:54.434Z,23.23
2017-09-22T04:39:21.903Z,24.03
2017-09-22T04:41:49.392Z,24.10
2017-09-22T04:44:17.635Z,25.40
2017-09-22T04:46:45.105Z,24.43
2017-09-22T04:49:12.708Z,26.53
2017-09-22T04:51:40.192Z,22.90
2017-09-22T04:54:07.733Z,25.70
2017-09-22T04:56:35.240Z,24.40
2017-09-22T04:59:02.711Z,25.27
2017-09-22T05:01:30.963Z,23.40
2017-09-22T05:03:59.931Z,25.93
2017-09-22T05:06:27.418Z,25.20
2017-09-22T05:08:55.640Z,24.97
2017-09-22T05:11:23.123Z,24.47
2017-09-22T05:13:50.652Z,23.13
2017-09-22T05:16:18.132Z,24.17
2017-09-22T05:18:45.624Z,22.47
2017-09-22T05:21:13.850Z,23.10
2017-09-22T05:23:41.331Z,22.00
2017-09-22T05:26:08.810Z,23.33
2017-09-22T05:28:37.097Z,22.57
2017-09-22T05:31:04.687Z,23.73
2017-09-22T05:33:32.240Z,24.33
2017-09-22T05:35:59.716Z,24.30
2017-09-22T05:38:27.250Z,23.60
2017-09-22T05:40:54.707Z,21.30
2017-09-22T05:43:22.246Z,22.60
2017-09-22T05:45:49.735Z,22.50
2017-09-22T05:48:17.219Z,24.00
2017-09-22T05:50:44.691Z,23.97
2017-09-22T05:53:12.274Z,24.13
2017-09-22T05:55:39.755Z,23.27
2017-09-22T05:58:07.243Z,23.93
2017-09-22T06:00:34.717Z,23.00
2017-09-22T06:03:02.176Z,21.50
2017-09-22T06:05:30.430Z,18.23
2017-09-22T06:07:57.898Z,19.67
2017-09-22T06:10:25.403Z,20.00
2017-09-22T06:12:52.897Z,19.77
2017-09-22T06:15:20.359Z,18.77
2017-09-22T06:17:47.914Z,18.53
2017-09-22T06:20:15.399Z,17.27
2017-09-22T06:22:42.867Z,17.73
2017-09-22T06:25:11.131Z,17.27
2017-09-22T06:27:38.599Z,20.43
2017-09-22T06:30:06.856Z,20.00
2017-09-22T06:32:34.319Z,18.10
2017-09-22T06:35:02.571Z,19.40
2017-09-22T06:37:30.053Z,18.77
2017-09-22T06:39:59.028Z,19.90
2017-09-22T06:42:26.524Z,17.47
2017-09-22T06:44:54.763Z,19.23
2017-09-22T06:47:22.244Z,18.73
2017-09-22T06:49:50.507Z,18.80
2017-09-22T06:52:17.987Z,19.03
2017-09-22T06:54:46.234Z,18.90
2017-09-22T06:57:13.705Z,19.30
2017-09-22T06:59:41.972Z,19.47
2017-09-22T07:02:09.452Z,17.80
2017-09-22T07:04:37.672Z,18.70
2017-09-22T07:07:05.160Z,16.90
2017-09-22T07:09:32.639Z,17.97
2017-09-22T07:12:00.109Z,17.43
2017-09-22T07:14:27.584Z,16.00
2017-09-22T07:16:55.059Z,17.83
2017-09-22T07:19:22.548Z,17.10
2017-09-22T07:21:50.798Z,16.97
2017-09-22T07:24:18.264Z,16.73
2017-09-22T07:26:45.743Z,16.90
2017-09-22T07:29:13.971Z,18.20
2017-09-22T07:31:41.461Z,16.73
2017-09-22T07:34:10.434Z,16.60
2017-09-22T07:36:37.903Z,17.80
2017-09-22T07:39:05.399Z,16.00
2017-09-22T07:41:32.871Z,17.80
2017-09-22T07:44:00.343Z,16.17
2017-09-22T07:46:27.828Z,17.10
2017-09-22T07:48:55.319Z,16.03
2017-09-22T07:51:23.559Z,16.00
2017-09-22T07:53:51.032Z,17.40
2017-09-22T07:56:19.258Z,18.40
2017-09-22T07:58:46.745Z,17.83
2017-09-22T08:01:14.220Z,17.70
2017-09-22T08:03:42.442Z,18.00
2017-09-22T08:06:09.991Z,17.67
2017-09-22T08:08:37.585Z,18.53
2017-09-22T08:11:05.049Z,18.33
2017-09-22T08:13:33.302Z,17.73
2017-09-22T08:16:00.795Z,16.67
2017-09-22T08:18:28.276Z,16.80
2017-09-22T08:20:56.499Z,16.93
2017-09-22T08:23:23.987Z,17.60
2017-09-22T08:25:51.456Z,16.70
2017-09-22T08:28:19.692Z,16.60
2017-09-22T08:30:47.166Z,16.90
2017-09-22T08:33:14.643Z,16.90
2017-09-22T08:35:42.907Z,16.90
2017-09-22T08:38:11.139Z,16.67
2017-09-22T08:40:38.628Z,16.23
2017-09-22T08:43:06.095Z,16.70
2017-09-22T08:45:34.339Z,17.43
2017-09-22T08:48:01.819Z,16.33
2017-09-22T08:50:29.302Z,16.30
2017-09-22T08:52:57.554Z,15.20
2017-09-22T08:55:25.163Z,15.73
2017-09-22T08:57:52.677Z,15.23
2017-09-22T09:00:20.921Z,16.03
2017-09-22T09:02:48.384Z,14.27
2017-09-22T09:05:15.859Z,15.60
2017-09-22T09:07:44.100Z,15.90
2017-09-22T09:10:11.587Z,16.27
2017-09-22T09:12:39.077Z,15.90
2017-09-22T09:15:06.559Z,15.47
2017-09-22T09:17:34.112Z,15.97
2017-09-22T09:20:01.577Z,16.00
2017-09-22T09:22:29.075Z,15.47
2017-09-22T09:24:56.548Z,14.40
2017-09-22T09:27:24.797Z,13.27
2017-09-22T09:29:52.271Z,13.80
2017-09-22T09:32:20.533Z,13.90
2017-09-22T09:34:48.004Z,14.80
2017-09-22T09:37:16.247Z,15.27
2017-09-22T09:39:43.729Z,14.60
2017-09-22T09:42:11.192Z,14.63
2017-09-22T09:44:39.454Z,14.93
2017-09-22T09:47:06.932Z,14.60
2017-09-22T09:49:35.176Z,12.93
2017-09-22T09:52:02.655Z,12.50
2017-09-22T09:54:30.882Z,13.30
2017-09-22T09:56:58.375Z,12.70
2017-09-22T09:59:25.843Z,12.47
2017-09-22T10:01:54.087Z,12.23
2017-09-22T10:04:21.566Z,12.10
2017-09-22T10:06:49.816Z,12.30
2017-09-22T10:09:17.280Z,12.20
2017-09-22T10:11:44.758Z,11.83
2017-09-22T10:14:12.991Z,11.30
2017-09-22T10:16:40.528Z,12.10
2017-09-22T10:19:07.995Z,11.20
2017-09-22T10:21:35.477Z,10.93
2017-09-22T10:24:02.960Z,10.80
2017-09-22T10:26:31.189Z,9.70
2017-09-22T10:28:58.668Z,9.73
2017-09-22T10:31:26.134Z,9.77
2017-09-22T10:33:53.607Z,9.90
2017-09-22T10:36:21.839Z,9.10
2017-09-22T10:38:49.319Z,8.47
2017-09-22T10:41:16.803Z,9.27
2017-09-22T10:43:45.030Z,9.33
2017-09-22T10:46:12.508Z,8.50
2017-09-22T10:48:39.969Z,7.10
2017-09-22T10:51:07.455Z,6.90
2017-09-22T10:53:34.937Z,7.50
2017-09-22T10:56:02.392Z,7.03
2017-09-22T10:58:29.879Z,7.30
2017-09-22T11:00:57.333Z,7.30
2017-09-22T11:03:24.816Z,7.50
2017-09-22T11:05:52.291Z,6.47
2017-09-22T11:08:20.524Z,5.97
2017-09-22T11:10:47.980Z,6.60
2017-09-22T11:13:15.452Z,6.60
2017-09-22T11:15:44.443Z,6.13
2017-09-22T11:18:11.895Z,5.70
2017-09-22T11:20:39.389Z,6.53
2017-09-22T11:23:06.871Z,6.70
2017-09-22T11:25:34.353Z,6.50
2017-09-22T11:28:01.812Z,6.73
2017-09-22T11:30:29.292Z,6.13
2017-09-22T11:32:56.824Z,6.40
2017-09-22T11:35:24.287Z,6.60
2017-09-22T11:37:51.779Z,6.47
2017-09-22T11:40:20.003Z,6.33
2017-09-22T11:42:47.502Z,6.03
2017-09-22T11:45:15.734Z,6.10
2017-09-22T11:47:43.203Z,6.20
2017-09-22T11:50:10.675Z,5.97
2017-09-22T11:52:38.915Z,6.90
2017-09-22T11:55:06.376Z,6.50
2017-09-22T11:57:33.843Z,7.33
2017-09-22T12:00:01.323Z,7.10
2017-09-22T12:02:29.568Z,6.17
2017-09-22T12:04:57.050Z,5.90
2017-09-22T12:07:24.508Z,6.00
2017-09-22T12:09:51.988Z,5.50
2017-09-22T12:12:20.226Z,4.60
2017-09-22T12:14:47.695Z,5.20
2017-09-22T12:17:15.302Z,5.63
2017-09-22T12:19:42.957Z,5.30
2017-09-22T12:22:10.454Z,5.50
2017-09-22T12:24:37.907Z,4.60
2017-09-22T12:27:05.387Z,5.10
2017-09-22T12:29:32.868Z,4.90
2017-09-22T12:32:01.087Z,5.47
2017-09-22T12:34:28.559Z,4.93
2017-09-22T12:36:56.019Z,4.77
2017-09-22T12:39:23.507Z,5.43
2017-09-22T12:41:51.809Z,6.30
2017-09-22T12:44:19.296Z,5.37
2017-09-22T12:46:46.784Z,5.40
2017-09-22T12:49:15.125Z,5.57
2017-09-22T12:51:42.596Z,5.13
2017-09-22T12:54:10.069Z,4.87
2017-09-22T12:56:37.547Z,4.53
2017-09-22T12:59:05.776Z,4.50
2017-09-22T13:01:33.251Z,4.83
2017-09-22T13:04:01.496Z,4.87
2017-09-22T13:06:28.972Z,4.80
2017-09-22T13:08:56.444Z,4.07
2017-09-22T13:11:24.255Z,4.07
2017-09-22T13:13:51.766Z,5.20
2017-09-22T13:16:20.738Z,4.63
2017-09-22T13:18:48.226Z,4.70
2017-09-22T13:21:16.466Z,4.87
2017-09-22T13:23:43.949Z,3.60
2017-09-22T13:26:11.422Z,4.83
2017-09-22T13:28:39.675Z,5.13
2017-09-22T13:31:07.139Z,5.13
2017-09-22T13:33:35.402Z,4.10
2017-09-22T13:36:02.868Z,4.50
2017-09-22T13:38:30.323Z,4.70
2017-09-22T13:40:57.815Z,4.83
2017-09-22T13:43:25.292Z,5.30
2017-09-22T13:45:53.062Z,5.20
2017-09-22T13:48:20.771Z,5.60
2017-09-22T13:50:48.260Z,4.40
2017-09-22T13:53:16.093Z,5.57
2017-09-22T13:55:43.894Z,5.60
2017-09-22T13:58:12.315Z,5.30
2017-09-22T14:00:39.779Z,4.70
2017-09-22T14:03:07.261Z,6.10
2017-09-22T14:05:35.510Z,6.03
2017-09-22T14:08:03.894Z,6.20
2017-09-22T14:10:31.383Z,5.90
2017-09-22T14:12:58.840Z,5.90
2017-09-22T14:15:26.314Z,5.70
2017-09-22T14:17:53.787Z,5.80
2017-09-22T14:20:21.261Z,5.47
2017-09-22T14:22:50.233Z,5.33
2017-09-22T14:25:17.705Z,6.27
2017-09-22T14:27:45.188Z,5.43
2017-09-22T14:30:13.427Z,6.30
2017-09-22T14:32:40.896Z,5.40
2017-09-22T14:35:08.370Z,5.40
2017-09-22T14:37:35.842Z,7.30
2017-09-22T14:40:04.068Z,6.00
2017-09-22T14:42:31.542Z,7.00
2017-09-22T14:44:59.031Z,8.03
2017-09-22T14:47:27.278Z,7.77
2017-09-22T14:49:54.755Z,8.03
2017-09-22T14:52:22.991Z,7.90
2017-09-22T14:54:50.465Z,8.63
2017-09-22T14:57:17.949Z,8.90
2017-09-22T14:59:46.204Z,8.50
2017-09-22T15:02:13.683Z,9.33
2017-09-22T15:04:41.923Z,10.43
2017-09-22T15:07:09.400Z,9.70
2017-09-22T15:09:37.646Z,8.43
2017-09-22T15:12:05.132Z,8.50
2017-09-22T15:14:32.586Z,8.90
2017-09-22T15:17:00.069Z,8.60
2017-09-22T15:19:27.557Z,8.10
2017-09-22T15:21:55.042Z,8.80
2017-09-22T15:24:22.504Z,8.70
2017-09-22T15:26:49.966Z,8.17
2017-09-22T15:29:17.453Z,7.60
2017-09-22T15:31:44.949Z,7.63
2017-09-22T15:34:12.423Z,9.37
2017-09-22T15:36:39.911Z,8.40
2017-09-22T15:39:08.135Z,8.33
2017-09-22T15:41:35.621Z,7.83
2017-09-22T15:44:03.618Z,8.43
2017-09-22T15:46:31.887Z,8.40
2017-09-22T15:49:00.115Z,8.17
2017-09-22T15:51:27.666Z,7.80
2017-09-22T15:53:55.143Z,9.00
2017-09-22T15:56:22.611Z,8.37
2017-09-22T15:58:50.079Z,9.20
2017-09-22T16:01:18.340Z,9.97
2017-09-22T16:03:46.620Z,9.87
2017-09-22T16:06:14.096Z,10.70
2017-09-22T16:08:42.364Z,9.97
2017-09-22T16:11:10.591Z,10.90
2017-09-22T16:13:38.408Z,11.70
2017-09-22T16:16:07.742Z,11.63
2017-09-22T16:18:35.286Z,11.87
2017-09-22T16:21:02.763Z,11.83
2017-09-22T16:23:30.236Z,11.60
2017-09-22T16:25:57.702Z,11.97
2017-09-22T16:28:25.187Z,13.37
2017-09-22T16:30:53.429Z,14.00
2017-09-22T16:33:20.918Z,14.40
2017-09-22T16:35:49.172Z,14.40
2017-09-22T16:38:16.684Z,12.73
2017-09-22T16:40:44.172Z,13.93
2017-09-22T16:43:11.639Z,13.97
2017-09-22T16:45:39.144Z,13.03
2017-09-22T16:48:06.674Z,13.20
2017-09-22T16:50:34.202Z,11.40
2017-09-22T16:53:01.680Z,12.00
2017-09-22T16:55:29.156Z,11.50
2017-09-22T16:57:57.392Z,12.90
2017-09-22T17:00:24.879Z,11.70
2017-09-22T17:02:53.155Z,12.07
2017-09-22T17:05:21.408Z,11.90
2017-09-22T17:07:48.891Z,12.23
2017-09-22T17:10:17.139Z,13.20
2017-09-22T17:12:44.622Z,12.80
2017-09-22T17:15:12.871Z,13.63
2017-09-22T17:17:40.407Z,12.80
2017-09-22T17:20:07.890Z,14.10
2017-09-22T17:22:35.415Z,14.00
2017-09-22T17:25:02.905Z,13.77
2017-09-22T17:27:31.172Z,15.63
2017-09-22T17:29:58.655Z,16.97
2017-09-22T17:32:26.911Z,15.83
2017-09-22T17:34:54.464Z,16.73
2017-09-22T17:37:21.947Z,17.17
2017-09-22T17:39:50.216Z,16.93
2017-09-22T17:42:18.641Z,16.20
2017-09-22T17:44:46.106Z,17.00
2017-09-22T17:47:13.588Z,18.30
2017-09-22T17:49:41.060Z,20.50
2017-09-22T17:52:08.543Z,21.10
2017-09-22T17:54:36.017Z,20.57
2017-09-22T17:57:03.496Z,20.03
2017-09-22T17:59:30.967Z,21.20
2017-09-22T18:01:58.458Z,21.33
2017-09-22T18:04:26.770Z,20.50
2017-09-22T18:06:54.295Z,20.70
2017-09-22T18:09:22.545Z,19.27
2017-09-22T18:11:50.017Z,18.43
2017-09-22T18:14:17.535Z,17.67
2017-09-22T18:16:45.010Z,17.70
2017-09-22T18:19:12.509Z,20.03
2017-09-22T18:21:40.754Z,21.67
2017-09-22T18:24:08.247Z,20.50
2017-09-22T18:26:35.741Z,21.40
2017-09-22T18:29:03.254Z,21.40
2017-09-22T18:31:31.499Z,22.60
2017-09-22T18:33:58.979Z,22.83
2017-09-22T18:36:27.232Z,21.93
2017-09-22T18:38:54.732Z,23.07
2017-09-22T18:41:22.225Z,24.57
2017-09-22T18:43:49.753Z,25.03
2017-09-22T18:46:17.252Z,24.87
2017-09-22T18:48:44.743Z,27.23
2017-09-22T18:51:13.007Z,25.90
2017-09-22T18:53:40.675Z,24.70
2017-09-22T18:56:09.342Z,25.47
2017-09-22T18:58:36.913Z,27.60
2017-09-22T19:01:05.217Z,29.17
2017-09-22T19:03:32.879Z,30.83
2017-09-22T19:06:00.530Z,29.70
2017-09-22T19:08:28.167Z,30.77
2017-09-22T19:10:56.516Z,32.00
2017-09-22T19:13:24.100Z,31.07
2017-09-22T19:15:51.597Z,33.70
2017-09-22T19:18:19.472Z,33.20
2017-09-22T19:20:47.073Z,33.63
2017-09-22T19:23:14.975Z,32.43
2017-09-22T19:25:42.544Z,33.10
2017-09-22T19:28:10.238Z,33.80
2017-09-22T19:30:37.770Z,33.47
2017-09-22T19:33:05.361Z,34.10
2017-09-22T19:35:32.918Z,35.03
2017-09-22T19:38:00.463Z,33.53
2017-09-22T19:40:27.964Z,32.80
2017-09-22T19:42:55.435Z,34.70
2017-09-22T19:45:23.926Z,36.80
2017-09-22T19:47:51.587Z,37.10
2017-09-22T19:50:19.127Z,36.53
2017-09-22T19:52:46.752Z,36.20
2017-09-22T19:55:14.263Z,38.30
2017-09-22T19:57:41.802Z,37.20
2017-09-22T20:00:12.876Z,38.80
2017-09-22T20:02:40.371Z,40.03
2017-09-22T20:05:07.900Z,40.80
2017-09-22T20:07:35.453Z,41.43
2017-09-22T20:10:02.989Z,41.83
2017-09-22T20:12:30.582Z,42.73
2017-09-22T20:14:58.239Z,43.47
2017-09-22T20:17:25.964Z,40.13
2017-09-22T20:19:53.776Z,40.67
2017-09-22T20:22:21.713Z,45.60
2017-09-22T20:24:49.538Z,42.60
2017-09-22T20:27:17.254Z,44.87
2017-09-22T20:29:44.730Z,49.27
2017-09-22T20:32:12.248Z,51.30
2017-09-22T20:34:39.799Z,47.63
2017-09-22T20:37:07.273Z,47.43
2017-09-22T20:39:34.864Z,52.90
2017-09-22T20:42:02.382Z,49.00
2017-09-22T20:44:29.897Z,52.20
2017-09-22T20:46:57.513Z,52.37
2017-09-22T20:49:25.047Z,55.13
2017-09-22T20:51:52.612Z,50.63
2017-09-22T20:54:20.162Z,53.30
2017-09-22T20:56:48.420Z,56.30
2017-09-22T20:59:15.928Z,54.80
2017-09-22T21:01:43.399Z,60.17
2017-09-22T21:04:10.891Z,58.87
2017-09-22T21:06:39.139Z,58.80
2017-09-22T21:09:06.692Z,59.10
2017-09-22T21:11:34.233Z,57.07
2017-09-22T21:14:01.758Z,56.77
2017-09-22T21:16:30.083Z,57.90
2017-09-22T21:18:57.635Z,58.30
2017-09-22T21:21:25.182Z,58.07
2017-09-22T21:23:52.644Z,60.47
2017-09-22T21:26:20.104Z,60.43
2017-09-22T21:28:47.625Z,62.40
2017-09-22T21:31:15.895Z,60.77
2017-09-22T21:33:44.166Z,59.60
2017-09-22T21:36:12.524Z,61.23
2017-09-22T21:38:40.027Z,58.77
2017-09-22T21:41:07.588Z,60.10
2017-09-22T21:43:35.230Z,59.27
2017-09-22T21:46:02.716Z,59.67
2017-09-22T21:48:30.206Z,58.90
2017-09-22T21:50:57.723Z,56.23
2017-09-22T21:53:25.207Z,58.97
2017-09-22T21:55:52.764Z,56.80
2017-09-22T21:58:20.331Z,56.50
2017-09-22T22:00:47.817Z,53.97
2017-09-22T22:03:21.923Z,54.30
2017-09-22T22:05:49.390Z,54.20
2017-09-22T22:08:17.643Z,53.37
2017-09-22T22:10:45.122Z,51.00
2017-09-22T22:13:13.361Z,53.20
2017-09-22T22:15:40.875Z,51.73
2017-09-22T22:18:08.387Z,50.60
2017-09-22T22:20:35.868Z,47.60
2017-09-22T22:23:04.092Z,47.60
2017-09-22T22:25:31.595Z,48.37
2017-09-22T22:27:59.867Z,47.57
2017-09-22T22:30:28.099Z,49.50
2017-09-22T22:32:55.593Z,48.30
2017-09-22T22:35:23.823Z,46.80
2017-09-22T22:37:51.310Z,43.90
2017-09-22T22:40:18.794Z,44.17
2017-09-22T22:42:47.043Z,46.60
2017-09-22T22:45:14.519Z,48.13
2017-09-22T22:47:42.755Z,44.67
2017-09-22T22:50:10.235Z,48.60
2017-09-22T22:52:37.699Z,45.60
2017-09-22T22:55:05.959Z,48.53
2017-09-22T22:57:33.427Z,47.27
2017-09-22T23:00:00.886Z,47.30
2017-09-22T23:02:28.380Z,47.33
2017-09-22T23:04:55.847Z,46.70
2017-09-22T23:07:23.341Z,49.27
2017-09-22T23:09:50.795Z,48.73
2017-09-22T23:12:18.275Z,49.57
2017-09-22T23:14:46.591Z,48.93
2017-09-22T23:17:14.052Z,51.03
2017-09-22T23:19:41.535Z,52.00
2017-09-22T23:22:08.999Z,54.00
2017-09-22T23:24:36.492Z,54.40
2017-09-22T23:27:04.730Z,52.07
2017-09-22T23:29:32.195Z,53.70
2017-09-22T23:31:59.684Z,52.17
2017-09-22T23:34:27.911Z,54.67
2017-09-22T23:36:55.399Z,52.37
2017-09-22T23:39:23.639Z,57.77
2017-09-22T23:41:51.127Z,54.30
2017-09-22T23:44:18.595Z,54.17
2017-09-22T23:46:46.848Z,54.80
2017-09-22T23:49:14.336Z,56.77
2017-09-22T23:51:41.802Z,48.67
2017-09-22T23:54:09.283Z,52.30
2017-09-22T23:56:36.756Z,59.27
2017-09-22T23:59:04.239Z,52.20
